Overview Statistics Trail Chart Weather Telemetry Raw packets
 

This is the latest recevied weather packets stored in our database for station/object JA7ZQY-10. If no packets are shown the sender has not sent any weather packets the latest 10 day(s).

<< 1 2 3 4 5 >>
Time Temp. Humidity Pressure Rain* Wind** Luminosity Snow
1788569768 23.33° C 62% 1017.1 hPa 0 mm - - -
1788569168 23.33° C 62% 1017 hPa 0 mm - - -
1788568569 23.33° C 63% 1017.1 hPa 0 mm - - -
1788567968 22.78° C 62% 1016.9 hPa 0 mm - - -
1788567368 23.33° C 62% 1016.9 hPa 0 mm - - -
1788566768 23.33° C 61% 1016.9 hPa 0 mm - - -
1788566169 23.33° C 62% 1016.8 hPa 0 mm - - -
1788565569 22.78° C 62% 1016.7 hPa 0 mm - - -
1788564968 22.78° C 62% 1017 hPa 0 mm - - -
1788564368 23.33° C 60% 1016.9 hPa 0 mm - - -
1788563768 23.33° C 60% 1016.7 hPa 0 mm - - -
1788563169 23.33° C 60% 1016.5 hPa 0 mm - - -
1788562568 22.78° C 61% 1016.4 hPa 0 mm - - -
1788561968 21.67° C 64% 1016.3 hPa 0 mm - - -
1788561370 21.67° C 64% 1016.2 hPa 0 mm - - -
1788560769 21.67° C 65% 1016.4 hPa 0 mm - - -
1788560169 21.11° C 66% 1016.1 hPa 0 mm - - -
1788559568 20.56° C 71% 1016.2 hPa 0 mm - - -
1788558968 19.44° C 74% 1016.2 hPa 0.51 mm - - -
1788558367 17.78° C 77% 1016 hPa 1.02 mm - - -
1788557767 17.78° C 77% 1016.1 hPa 3.05 mm - - -
1788557167 17.78° C 79% 1015.8 hPa 3.05 mm - - -
1788556567 17.22° C 84% 1015.7 hPa 3.05 mm - - -
1788555969 16.67° C 86% 1015.8 hPa 2.54 mm - - -
1788555368 16.67° C 90% 1015.7 hPa 2.54 mm - - -

* Rain latest hour (hover to see other rain measurements)
** Current wind speed in m/s (hover to see current wind gust speed)